createdAt,value
2019-04-14T00:01:54.512Z,101071.20
2019-04-14T00:04:31.263Z,101075.30
2019-04-14T00:06:59.134Z,101069.39
2019-04-14T00:09:27.305Z,101078.23
2019-04-14T00:11:54.922Z,101070.89
2019-04-14T00:14:22.926Z,101071.66
2019-04-14T00:16:51.030Z,101068.41
2019-04-14T00:19:19.348Z,101074.86
2019-04-14T00:21:47.639Z,101074.91
2019-04-14T00:24:16.185Z,101071.27
2019-04-14T00:26:44.486Z,101073.48
2019-04-14T00:29:13.034Z,101073.69
2019-04-14T00:31:41.193Z,101068.34
2019-04-14T00:34:26.796Z,101068.20
2019-04-14T00:37:25.430Z,101070.03
2019-04-14T00:39:55.466Z,101067.03
2019-04-14T00:42:40.941Z,101064.05
2019-04-14T00:45:32.273Z,101056.09
2019-04-14T00:48:01.023Z,101061.50
2019-04-14T00:50:23.298Z,101060.98
2019-04-14T00:52:50.729Z,101060.42
2019-04-14T00:55:18.320Z,101059.26
2019-04-14T00:57:46.274Z,101050.77
2019-04-14T01:00:17.280Z,101055.41
2019-04-14T01:02:43.177Z,101061.81
2019-04-14T01:05:10.953Z,101047.78
2019-04-14T01:07:39.123Z,101051.30
2019-04-14T01:10:06.311Z,101041.41
2019-04-14T01:12:34.199Z,101037.36
2019-04-14T01:15:01.425Z,101039.63
2019-04-14T01:17:28.990Z,101034.86
2019-04-14T01:19:57.002Z,101036.50
2019-04-14T01:22:24.924Z,101038.00
2019-04-14T01:24:53.284Z,101030.91
2019-04-14T01:27:21.110Z,101028.88
2019-04-14T01:29:49.443Z,101035.48
2019-04-14T01:32:17.582Z,101037.50
2019-04-14T01:34:45.546Z,101037.31
2019-04-14T01:37:13.670Z,101038.47
2019-04-14T01:39:41.465Z,101044.20
2019-04-14T01:42:09.523Z,101038.41
2019-04-14T01:44:37.358Z,101042.55
2019-04-14T01:47:05.249Z,101040.27
2019-04-14T01:49:33.292Z,101037.46
2019-04-14T01:52:23.197Z,101051.99
2019-04-14T01:55:11.199Z,101049.69
2019-04-14T01:57:50.926Z,101045.98
2019-04-14T02:00:36.415Z,101048.97
2019-04-14T02:03:06.110Z,101059.23
2019-04-14T02:05:34.306Z,101055.57
2019-04-14T02:08:02.355Z,101058.42
2019-04-14T02:10:30.477Z,101050.36
2019-04-14T02:12:58.459Z,101057.45
2019-04-14T02:15:26.574Z,101057.39
2019-04-14T02:17:54.655Z,101048.86
2019-04-14T02:20:22.925Z,101054.45
2019-04-14T02:22:50.620Z,101047.81
2019-04-14T02:25:18.849Z,101055.48
2019-04-14T02:27:47.236Z,101059.20
2019-04-14T02:30:19.573Z,101051.63
2019-04-14T02:33:21.670Z,101055.88
2019-04-14T02:38:14.044Z,101053.80
2019-04-14T02:43:04.328Z,101049.50
2019-04-14T02:45:51.986Z,101050.86
2019-04-14T02:48:15.133Z,101054.77
2019-04-14T02:50:32.358Z,101042.21
2019-04-14T02:53:12.275Z,101047.28
2019-04-14T02:55:29.919Z,101037.37
2019-04-14T02:58:03.515Z,101051.06
2019-04-14T03:00:54.221Z,101050.34
2019-04-14T03:03:03.472Z,101053.54
2019-04-14T03:08:04.234Z,101052.18
2019-04-14T03:10:34.043Z,101055.95
2019-04-14T03:15:35.443Z,101038.10
2019-04-14T03:18:24.151Z,101037.33
2019-04-14T03:21:07.371Z,101041.34
2019-04-14T03:23:46.360Z,101041.57
2019-04-14T03:26:15.404Z,101040.06
2019-04-14T03:28:48.792Z,101044.09
2019-04-14T03:31:41.741Z,101038.16
2019-04-14T03:37:43.406Z,101042.59
2019-04-14T03:38:53.304Z,101042.73
2019-04-14T03:43:41.375Z,101046.31
2019-04-14T03:46:21.345Z,101048.39
2019-04-14T03:51:17.394Z,101053.75
2019-04-14T03:53:39.996Z,101053.22
2019-04-14T03:56:22.907Z,101056.02
2019-04-14T03:58:51.128Z,101057.84
2019-04-14T04:01:19.137Z,101058.28
2019-04-14T04:03:47.777Z,101054.47
2019-04-14T04:06:15.982Z,101059.15
2019-04-14T04:08:44.140Z,101067.08
2019-04-14T04:11:12.597Z,101064.41
2019-04-14T04:13:41.165Z,101064.08
2019-04-14T04:16:14.090Z,101062.28
2019-04-14T04:18:51.243Z,101051.58
2019-04-14T04:21:35.559Z,101062.39
2019-04-14T04:24:30.608Z,101061.67
2019-04-14T04:27:07.449Z,101065.19
2019-04-14T04:29:59.221Z,101066.59
2019-04-14T04:32:46.929Z,101071.08
2019-04-14T04:35:24.357Z,101074.27
2019-04-14T04:37:58.578Z,101083.58
2019-04-14T04:40:29.065Z,101084.77
2019-04-14T04:42:56.935Z,101076.44
2019-04-14T04:45:24.207Z,101092.45
2019-04-14T04:47:51.623Z,101092.40
2019-04-14T04:50:19.314Z,101092.34
2019-04-14T04:52:47.544Z,101093.90
2019-04-14T04:55:15.591Z,101089.94
2019-04-14T04:57:43.790Z,101094.91
2019-04-14T05:00:13.460Z,101094.52
2019-04-14T05:02:41.698Z,101094.52
2019-04-14T05:05:45.047Z,101090.61
2019-04-14T05:08:13.088Z,101095.88
2019-04-14T05:10:45.757Z,101100.11
2019-04-14T05:13:16.946Z,101101.22
2019-04-14T05:15:47.313Z,101103.45
2019-04-14T05:18:22.418Z,101112.98
2019-04-14T05:20:50.686Z,101116.36
2019-04-14T05:23:19.107Z,101117.87
2019-04-14T05:25:47.376Z,101119.91
2019-04-14T05:28:15.579Z,101121.48
2019-04-14T05:30:43.665Z,101124.23
2019-04-14T05:33:12.008Z,101123.57
2019-04-14T05:35:40.111Z,101125.83
2019-04-14T05:38:08.447Z,101120.14
2019-04-14T05:40:36.414Z,101111.14
2019-04-14T05:43:04.550Z,101113.70
2019-04-14T05:45:32.751Z,101118.91
2019-04-14T05:48:00.986Z,101121.89
2019-04-14T05:50:29.263Z,101128.55
2019-04-14T05:52:56.448Z,101129.38
2019-04-14T05:55:24.216Z,101124.85
2019-04-14T05:57:52.506Z,101133.73
2019-04-14T06:00:21.092Z,101127.98
2019-04-14T06:02:48.551Z,101131.70
2019-04-14T06:05:16.606Z,101129.23
2019-04-14T06:07:43.886Z,101133.84
2019-04-14T06:10:11.222Z,101134.75
2019-04-14T06:12:38.387Z,101143.82
2019-04-14T06:15:05.685Z,101145.83
2019-04-14T06:17:33.243Z,101147.73
2019-04-14T06:20:00.418Z,101152.56
2019-04-14T06:22:27.621Z,101152.80
2019-04-14T06:24:55.074Z,101151.41
2019-04-14T06:27:22.291Z,101144.75
2019-04-14T06:29:51.807Z,101150.30
2019-04-14T06:32:30.395Z,101147.62
2019-04-14T06:35:29.165Z,101149.09
2019-04-14T06:38:07.777Z,101155.14
2019-04-14T06:40:47.573Z,101147.77
2019-04-14T06:43:14.785Z,101160.29
2019-04-14T06:45:42.027Z,101150.67
2019-04-14T06:48:09.207Z,101148.23
2019-04-14T06:50:36.312Z,101140.78
2019-04-14T06:53:04.093Z,101154.22
2019-04-14T06:55:31.265Z,101145.78
2019-04-14T06:57:58.414Z,101153.77
2019-04-14T07:00:25.588Z,101156.66
2019-04-14T07:02:52.685Z,101156.93
2019-04-14T07:05:19.878Z,101159.44
2019-04-14T07:07:56.541Z,101149.35
2019-04-14T07:10:16.466Z,101156.91
2019-04-14T07:12:43.933Z,101164.98
2019-04-14T07:15:11.130Z,101163.29
2019-04-14T07:17:38.193Z,101147.55
2019-04-14T07:20:05.776Z,101155.59
2019-04-14T07:22:34.309Z,101158.48
2019-04-14T07:25:34.594Z,101157.90
2019-04-14T07:28:20.028Z,101156.09
2019-04-14T07:31:59.048Z,101159.88
2019-04-14T07:37:59.106Z,101175.31
2019-04-14T07:40:48.931Z,101169.23
2019-04-14T07:43:25.103Z,101171.22
2019-04-14T07:46:16.005Z,101166.09
2019-04-14T07:49:07.508Z,101173.38
2019-04-14T07:51:40.309Z,101173.85
2019-04-14T07:54:15.256Z,101173.39
2019-04-14T07:56:59.081Z,101170.95
2019-04-14T07:59:31.743Z,101165.86
2019-04-14T08:02:13.371Z,101169.76
2019-04-14T08:04:57.492Z,101163.41
2019-04-14T08:07:25.267Z,101170.62
2019-04-14T08:09:52.463Z,101179.37
2019-04-14T08:12:19.940Z,101158.31
2019-04-14T08:14:47.143Z,101165.03
2019-04-14T08:17:14.306Z,101166.55
2019-04-14T08:19:41.839Z,101167.91
2019-04-14T08:22:09.064Z,101192.92
2019-04-14T08:24:36.264Z,101169.91
2019-04-14T08:27:03.495Z,101174.14
2019-04-14T08:29:30.691Z,101182.16
2019-04-14T08:31:57.844Z,101182.03
2019-04-14T08:34:27.071Z,101171.69
2019-04-14T08:36:54.164Z,101165.40
2019-04-14T08:39:21.323Z,101168.87
2019-04-14T08:42:06.163Z,101159.89
2019-04-14T08:44:40.639Z,101164.19
2019-04-14T08:47:30.417Z,101165.27
2019-04-14T08:50:01.611Z,101166.23
2019-04-14T08:53:03.500Z,101162.46
2019-04-14T08:56:02.477Z,101163.50
2019-04-14T08:59:01.191Z,101156.31
2019-04-14T09:01:36.836Z,101153.52
2019-04-14T09:04:18.548Z,101152.64
2019-04-14T09:06:54.685Z,101156.44
2019-04-14T09:09:35.013Z,101162.55
2019-04-14T09:12:15.351Z,101150.91
2019-04-14T09:14:37.955Z,101161.56
2019-04-14T09:17:05.569Z,101177.80
2019-04-14T09:19:32.732Z,101170.61
2019-04-14T09:21:59.947Z,101159.25
2019-04-14T09:24:27.099Z,101160.32
2019-04-14T09:26:54.295Z,101153.24
2019-04-14T09:29:21.525Z,101149.95
2019-04-14T09:31:48.691Z,101158.33
2019-04-14T09:34:15.788Z,101164.45
2019-04-14T09:36:43.081Z,101165.50
2019-04-14T09:39:10.292Z,101171.57
2019-04-14T09:41:37.684Z,101178.19
2019-04-14T09:44:05.344Z,101165.95
2019-04-14T09:46:32.556Z,101168.95
2019-04-14T09:48:59.743Z,101156.98
2019-04-14T09:51:27.014Z,101162.05
2019-04-14T09:53:54.527Z,101163.80
2019-04-14T09:56:21.818Z,101162.86
2019-04-14T09:58:49.038Z,101164.81
2019-04-14T10:01:16.308Z,101166.09
2019-04-14T10:03:43.495Z,101157.47
2019-04-14T10:06:10.786Z,101165.72
2019-04-14T10:08:38.095Z,101160.05
2019-04-14T10:11:05.636Z,101157.16
2019-04-14T10:13:32.829Z,101154.86
2019-04-14T10:15:59.923Z,101165.13
2019-04-14T10:18:27.094Z,101159.34
2019-04-14T10:20:54.401Z,101173.23
2019-04-14T10:23:21.759Z,101167.92
2019-04-14T10:25:49.003Z,101168.98
2019-04-14T10:28:16.233Z,101158.65
2019-04-14T10:30:43.425Z,101158.31
2019-04-14T10:33:10.593Z,101163.98
2019-04-14T10:35:37.747Z,101171.59
2019-04-14T10:38:05.017Z,101166.38
2019-04-14T10:40:32.145Z,101171.01
2019-04-14T10:42:59.363Z,101165.84
2019-04-14T10:45:26.629Z,101161.45
2019-04-14T10:47:53.703Z,101159.81
2019-04-14T10:50:30.699Z,101155.97
2019-04-14T10:52:50.285Z,101161.14
2019-04-14T10:55:17.492Z,101165.70
2019-04-14T10:57:44.616Z,101170.77
2019-04-14T11:00:14.250Z,101157.30
2019-04-14T11:02:41.729Z,101151.13
2019-04-14T11:05:09.281Z,101167.72
2019-04-14T11:07:36.486Z,101157.94
2019-04-14T11:10:04.734Z,101171.05
2019-04-14T11:12:31.892Z,101161.54
2019-04-14T11:14:59.373Z,101152.63
2019-04-14T11:17:26.575Z,101151.02
2019-04-14T11:19:53.776Z,101158.72
2019-04-14T11:22:21.625Z,101150.55
2019-04-14T11:24:48.877Z,101153.38
2019-04-14T11:27:16.297Z,101154.31
2019-04-14T11:29:43.873Z,101169.63
2019-04-14T11:32:36.701Z,101166.06
2019-04-14T11:35:23.189Z,101159.30
2019-04-14T11:38:09.459Z,101153.42
2019-04-14T11:40:40.942Z,101146.22
2019-04-14T11:43:08.344Z,101157.88
2019-04-14T11:45:35.693Z,101144.30
2019-04-14T11:48:02.752Z,101143.39
2019-04-14T11:50:30.525Z,101146.84
2019-04-14T11:52:57.725Z,101153.88
2019-04-14T11:55:24.937Z,101144.05
2019-04-14T11:57:53.434Z,101152.33
2019-04-14T12:00:36.825Z,101153.41
2019-04-14T12:03:12.305Z,101147.95
2019-04-14T12:05:56.239Z,101142.27
2019-04-14T12:08:38.027Z,101156.97
2019-04-14T12:11:05.261Z,101145.99
2019-04-14T12:13:32.468Z,101155.64
2019-04-14T12:15:59.711Z,101158.00
2019-04-14T12:18:27.010Z,101156.73
2019-04-14T12:20:54.071Z,101157.40
2019-04-14T12:23:21.665Z,101148.42
2019-04-14T12:25:49.400Z,101156.73
2019-04-14T12:28:17.306Z,101158.85
2019-04-14T12:30:46.724Z,101167.96
2019-04-14T12:33:14.550Z,101175.13
2019-04-14T12:35:41.636Z,101170.66
2019-04-14T12:38:09.442Z,101171.20
2019-04-14T12:40:37.047Z,101163.63
2019-04-14T12:43:21.968Z,101171.59
2019-04-14T12:46:09.590Z,101180.33
2019-04-14T12:48:59.232Z,101173.91
2019-04-14T12:51:46.059Z,101170.48
2019-04-14T12:54:14.042Z,101181.10
2019-04-14T12:56:43.532Z,101189.27
2019-04-14T12:59:18.926Z,101173.42
2019-04-14T13:02:05.913Z,101171.45
2019-04-14T13:04:33.171Z,101179.45
2019-04-14T13:07:00.334Z,101166.77
2019-04-14T13:09:27.526Z,101185.47
2019-04-14T13:11:54.755Z,101183.20
2019-04-14T13:14:22.421Z,101183.59
2019-04-14T13:16:49.550Z,101183.16
2019-04-14T13:19:16.815Z,101182.23
2019-04-14T13:21:44.254Z,101175.57
2019-04-14T13:24:11.465Z,101185.48
2019-04-14T13:26:38.974Z,101187.19
2019-04-14T13:29:06.311Z,101184.52
2019-04-14T13:31:33.468Z,101172.59
2019-04-14T13:34:00.991Z,101169.02
2019-04-14T13:36:28.167Z,101176.63
2019-04-14T13:38:55.349Z,101176.41
2019-04-14T13:41:22.654Z,101174.27
2019-04-14T13:43:49.897Z,101172.18
2019-04-14T13:46:17.129Z,101171.31
2019-04-14T13:48:44.418Z,101176.62
2019-04-14T13:51:11.636Z,101180.32
2019-04-14T13:53:38.820Z,101173.98
2019-04-14T13:56:06.002Z,101175.41
2019-04-14T13:58:33.801Z,101192.68
2019-04-14T14:01:01.299Z,101172.06
2019-04-14T14:03:28.512Z,101174.47
2019-04-14T14:05:55.776Z,101177.86
2019-04-14T14:08:23.271Z,101186.30
2019-04-14T14:10:54.160Z,101198.98
2019-04-14T14:13:36.321Z,101189.67
2019-04-14T14:16:28.717Z,101178.80
2019-04-14T14:19:13.915Z,101196.98
2019-04-14T14:22:05.780Z,101189.63
2019-04-14T14:24:48.094Z,101199.22
2019-04-14T14:27:15.335Z,101181.59
2019-04-14T14:29:43.071Z,101173.56
2019-04-14T14:32:24.557Z,101165.95
2019-04-14T14:34:51.758Z,101165.16
2019-04-14T14:37:19.065Z,101192.79
2019-04-14T14:39:46.280Z,101164.09
2019-04-14T14:42:13.391Z,101170.00
2019-04-14T14:44:45.473Z,101173.02
2019-04-14T14:47:21.129Z,101193.09
2019-04-14T14:50:07.895Z,101174.41
2019-04-14T14:52:36.267Z,101164.31
2019-04-14T14:55:04.109Z,101182.31
2019-04-14T14:57:31.210Z,101173.45
2019-04-14T14:59:58.519Z,101181.95
2019-04-14T15:02:25.721Z,101164.06
2019-04-14T15:04:52.907Z,101171.69
2019-04-14T15:07:20.148Z,101158.52
2019-04-14T15:09:47.351Z,101174.17
2019-04-14T15:12:14.603Z,101167.31
2019-04-14T15:14:41.817Z,101175.91
2019-04-14T15:17:09.064Z,101174.41
2019-04-14T15:19:36.249Z,101208.58
2019-04-14T15:22:03.750Z,101205.16
2019-04-14T15:24:30.957Z,101192.77
2019-04-14T15:26:58.265Z,101210.39
2019-04-14T15:29:25.536Z,101216.30
2019-04-14T15:31:52.683Z,101238.45
2019-04-14T15:34:19.896Z,101217.98
2019-04-14T15:36:47.175Z,101228.88
2019-04-14T15:39:14.433Z,101225.14
2019-04-14T15:41:41.626Z,101223.34
2019-04-14T15:44:08.992Z,101247.06
2019-04-14T15:46:36.195Z,101229.47
2019-04-14T15:49:03.391Z,101233.56
2019-04-14T15:51:30.870Z,101233.37
2019-04-14T15:53:58.117Z,101236.96
2019-04-14T15:57:03.206Z,101242.05
2019-04-14T15:59:48.945Z,101232.33
2019-04-14T16:02:22.084Z,101249.17
2019-04-14T16:04:58.115Z,101252.84
2019-04-14T16:07:45.066Z,101256.86
2019-04-14T16:10:45.537Z,101241.73
2019-04-14T16:13:21.462Z,101255.18
2019-04-14T16:16:14.243Z,101255.75
2019-04-14T16:19:13.342Z,101253.87
2019-04-14T16:21:40.524Z,101257.32
2019-04-14T16:24:07.790Z,101257.60
2019-04-14T16:26:49.064Z,101275.86
2019-04-14T16:29:35.786Z,101285.44
2019-04-14T16:32:06.005Z,101278.00
2019-04-14T16:34:38.862Z,101278.00
2019-04-14T16:37:06.150Z,101291.50
2019-04-14T16:39:33.368Z,101286.73
2019-04-14T16:42:00.489Z,101304.55
2019-04-14T16:44:27.662Z,101291.05
2019-04-14T16:46:55.151Z,101290.45
2019-04-14T16:49:22.894Z,101290.47
2019-04-14T16:51:53.845Z,101292.16
2019-04-14T16:54:40.709Z,101306.53
2019-04-14T16:57:29.409Z,101302.13
2019-04-14T16:59:58.570Z,101309.80
2019-04-14T17:02:26.053Z,101317.80
2019-04-14T17:04:53.345Z,101321.08
2019-04-14T17:07:20.602Z,101316.22
2019-04-14T17:09:47.874Z,101315.72
2019-04-14T17:12:15.595Z,101325.20
2019-04-14T17:14:48.676Z,101333.08
2019-04-14T17:17:36.881Z,101333.44
2019-04-14T17:20:20.379Z,101336.26
2019-04-14T17:23:14.551Z,101331.83
2019-04-14T17:25:55.459Z,101339.66
2019-04-14T17:28:41.883Z,101348.81
2019-04-14T17:31:34.663Z,101350.47
2019-04-14T17:34:14.147Z,101350.69
2019-04-14T17:37:07.084Z,101352.94
2019-04-14T17:39:39.642Z,101355.25
2019-04-14T17:42:26.476Z,101354.55
2019-04-14T17:45:00.509Z,101350.28
2019-04-14T17:47:45.827Z,101372.30
2019-04-14T17:50:40.683Z,101363.03
2019-04-14T17:53:18.557Z,101366.97
2019-04-14T17:55:52.077Z,101375.34
2019-04-14T17:58:31.699Z,101381.45
2019-04-14T18:01:22.189Z,101384.61
2019-04-14T18:04:15.814Z,101387.08
2019-04-14T18:06:57.278Z,101389.89
2019-04-14T18:09:43.268Z,101385.87
2019-04-14T18:12:36.101Z,101393.41
2019-04-14T18:15:42.233Z,101397.39
2019-04-14T18:18:25.292Z,101396.61
2019-04-14T18:20:55.672Z,101412.68
2019-04-14T18:23:23.565Z,101406.64
2019-04-14T18:25:50.937Z,101412.11
2019-04-14T18:28:27.165Z,101403.56
2019-04-14T18:31:31.903Z,101404.82
2019-04-14T18:34:27.811Z,101408.45
2019-04-14T18:37:01.540Z,101406.81
2019-04-14T18:39:54.071Z,101417.26
2019-04-14T18:42:31.488Z,101418.19
2019-04-14T18:45:19.865Z,101420.63
2019-04-14T18:48:09.671Z,101427.97
2019-04-14T18:50:42.837Z,101432.86
2019-04-14T18:53:20.101Z,101429.80
2019-04-14T18:56:09.900Z,101436.74
2019-04-14T18:59:08.873Z,101434.74
2019-04-14T19:01:38.483Z,101441.62
2019-04-14T19:04:05.831Z,101444.01
2019-04-14T19:06:33.095Z,101444.39
2019-04-14T19:09:00.410Z,101449.44
2019-04-14T19:11:47.327Z,101450.57
2019-04-14T19:14:18.903Z,101462.06
2019-04-14T19:16:49.941Z,101458.61
2019-04-14T19:19:18.437Z,101454.81
2019-04-14T19:21:45.635Z,101463.03
2019-04-14T19:24:13.046Z,101453.68
2019-04-14T19:26:40.213Z,101449.67
2019-04-14T19:29:07.331Z,101451.09
2019-04-14T19:31:34.768Z,101455.02
2019-04-14T19:34:01.934Z,101458.95
2019-04-14T19:36:29.230Z,101458.23
2019-04-14T19:38:56.502Z,101462.27
2019-04-14T19:41:23.992Z,101453.16
2019-04-14T19:43:51.258Z,101459.33
2019-04-14T19:46:18.736Z,101461.56
2019-04-14T19:48:45.954Z,101458.25
2019-04-14T19:51:13.154Z,101462.50
2019-04-14T19:53:40.350Z,101461.81
2019-04-14T19:56:07.548Z,101460.87
2019-04-14T19:58:34.806Z,101468.98
2019-04-14T20:01:03.412Z,101473.53
2019-04-14T20:03:31.196Z,101473.39
2019-04-14T20:05:58.829Z,101475.83
2019-04-14T20:08:26.097Z,101475.31
2019-04-14T20:10:54.631Z,101480.39
2019-04-14T20:13:22.334Z,101477.01
2019-04-14T20:16:18.173Z,101483.41
2019-04-14T20:19:10.763Z,101483.18
2019-04-14T20:21:50.024Z,101486.23
2019-04-14T20:24:21.997Z,101500.26
2019-04-14T20:27:02.349Z,101502.12
2019-04-14T20:29:36.098Z,101512.28
2019-04-14T20:32:35.003Z,101514.05
2019-04-14T20:35:02.301Z,101507.63
2019-04-14T20:37:29.860Z,101515.54
2019-04-14T20:39:57.367Z,101519.61
2019-04-14T20:42:24.666Z,101520.41
2019-04-14T20:44:51.854Z,101519.83
2019-04-14T20:47:19.118Z,101528.77
2019-04-14T20:49:46.457Z,101531.94
2019-04-14T20:52:13.678Z,101525.33
2019-04-14T20:54:40.896Z,101527.69
2019-04-14T20:57:08.672Z,101521.55
2019-04-14T20:59:35.873Z,101529.29
2019-04-14T21:02:23.603Z,101530.82
2019-04-14T21:05:10.506Z,101532.92
2019-04-14T21:07:56.662Z,101541.71
2019-04-14T21:10:31.706Z,101539.29
2019-04-14T21:13:07.906Z,101545.20
2019-04-14T21:15:47.491Z,101538.27
2019-04-14T21:18:34.286Z,101542.80
2019-04-14T21:21:11.335Z,101544.72
2019-04-14T21:24:12.996Z,101551.68
2019-04-14T21:27:05.827Z,101553.11
2019-04-14T21:29:55.461Z,101553.38
2019-04-14T21:32:26.483Z,101555.61
2019-04-14T21:35:00.288Z,101559.33
2019-04-14T21:37:48.693Z,101556.80
2019-04-14T21:40:22.202Z,101564.63
2019-04-14T21:42:49.364Z,101552.57
2019-04-14T21:45:16.608Z,101557.00
2019-04-14T21:47:43.746Z,101557.00
2019-04-14T21:50:11.310Z,101568.87
2019-04-14T21:52:40.739Z,101566.42
2019-04-14T21:55:08.225Z,101578.87
2019-04-14T21:57:39.946Z,101579.73
2019-04-14T22:00:35.237Z,101576.20
2019-04-14T22:03:21.018Z,101575.92
2019-04-14T22:06:10.139Z,101572.59
2019-04-14T22:08:41.622Z,101571.50
2019-04-14T22:11:13.296Z,101572.33
2019-04-14T22:13:41.306Z,101569.96
2019-04-14T22:16:08.563Z,101579.52
2019-04-14T22:18:36.089Z,101582.52
2019-04-14T22:21:03.314Z,101578.77
2019-04-14T22:23:30.576Z,101580.51
2019-04-14T22:25:58.184Z,101574.84
2019-04-14T22:28:25.440Z,101575.82
2019-04-14T22:30:52.709Z,101573.91
2019-04-14T22:33:19.921Z,101574.39
2019-04-14T22:35:47.354Z,101567.03
2019-04-14T22:38:14.533Z,101555.63
2019-04-14T22:40:41.789Z,101558.02
2019-04-14T22:43:09.007Z,101556.00
2019-04-14T22:45:36.230Z,101554.53
2019-04-14T22:48:03.556Z,101546.92
2019-04-14T22:50:30.666Z,101559.37
2019-04-14T22:52:57.952Z,101552.84
2019-04-14T22:55:25.457Z,101559.05
2019-04-14T22:57:52.628Z,101556.03
2019-04-14T23:00:45.865Z,101556.75
2019-04-14T23:03:31.195Z,101548.77
2019-04-14T23:06:03.619Z,101548.53
2019-04-14T23:08:48.364Z,101548.30
2019-04-14T23:11:50.154Z,101549.36
2019-04-14T23:14:31.595Z,101557.31
2019-04-14T23:17:17.105Z,101556.91
2019-04-14T23:19:52.656Z,101560.75
2019-04-14T23:22:48.266Z,101555.99
2019-04-14T23:25:15.455Z,101554.17
2019-04-14T23:27:42.655Z,101550.96
2019-04-14T23:30:10.205Z,101549.05
2019-04-14T23:32:37.397Z,101546.74
2019-04-14T23:35:04.649Z,101544.38
2019-04-14T23:37:32.165Z,101546.58
2019-04-14T23:39:59.349Z,101545.22
2019-04-14T23:42:26.565Z,101547.83
2019-04-14T23:44:53.776Z,101553.41
2019-04-14T23:47:20.985Z,101554.03
2019-04-14T23:49:48.064Z,101552.14
2019-04-14T23:52:15.281Z,101550.59
2019-04-14T23:54:42.664Z,101554.66
2019-04-14T23:57:10.207Z,101558.34
2019-04-14T23:59:37.468Z,101551.08
